sensor_id;sensor_type;location;lat;lon;timestamp;temperature;humidity
67005;HTU21D;53920;51.094;5.902;2023-12-20T00:01:39;8.93;86.22
67005;HTU21D;53920;51.094;5.902;2023-12-20T00:04:05;8.90;86.11
67005;HTU21D;53920;51.094;5.902;2023-12-20T00:06:31;8.85;86.14
67005;HTU21D;53920;51.094;5.902;2023-12-20T00:08:57;8.72;86.51
67005;HTU21D;53920;51.094;5.902;2023-12-20T00:11:24;8.58;86.94
67005;HTU21D;53920;51.094;5.902;2023-12-20T00:13:50;8.50;86.82
67005;HTU21D;53920;51.094;5.902;2023-12-20T00:16:16;8.41;86.96
67005;HTU21D;53920;51.094;5.902;2023-12-20T00:18:41;8.36;86.56
67005;HTU21D;53920;51.094;5.902;2023-12-20T00:21:07;8.24;86.56
67005;HTU21D;53920;51.094;5.902;2023-12-20T00:23:33;8.09;86.74
67005;HTU21D;53920;51.094;5.902;2023-12-20T00:25:59;7.94;86.96
67005;HTU21D;53920;51.094;5.902;2023-12-20T00:28:25;7.87;86.90
67005;HTU21D;53920;51.094;5.902;2023-12-20T00:30:50;7.83;86.92
67005;HTU21D;53920;51.094;5.902;2023-12-20T00:33:16;7.70;87.17
67005;HTU21D;53920;51.094;5.902;2023-12-20T00:35:42;7.62;87.27
67005;HTU21D;53920;51.094;5.902;2023-12-20T00:38:08;7.54;87.41
67005;HTU21D;53920;51.094;5.902;2023-12-20T00:40:34;7.57;86.99
67005;HTU21D;53920;51.094;5.902;2023-12-20T00:43:00;7.53;86.60
67005;HTU21D;53920;51.094;5.902;2023-12-20T00:45:26;7.50;86.35
67005;HTU21D;53920;51.094;5.902;2023-12-20T00:47:52;7.40;86.51
67005;HTU21D;53920;51.094;5.902;2023-12-20T00:50:17;7.37;86.32
67005;HTU21D;53920;51.094;5.902;2023-12-20T00:52:43;7.35;86.19
67005;HTU21D;53920;51.094;5.902;2023-12-20T00:55:09;7.38;85.89
67005;HTU21D;53920;51.094;5.902;2023-12-20T00:57:35;7.37;85.75
67005;HTU21D;53920;51.094;5.902;2023-12-20T01:00:01;7.33;85.71
67005;HTU21D;53920;51.094;5.902;2023-12-20T01:02:28;7.35;85.37
67005;HTU21D;53920;51.094;5.902;2023-12-20T01:04:53;7.31;85.32
67005;HTU21D;53920;51.094;5.902;2023-12-20T01:07:19;7.25;85.37
67005;HTU21D;53920;51.094;5.902;2023-12-20T01:09:45;7.26;85.17
67005;HTU21D;53920;51.094;5.902;2023-12-20T01:12:11;7.24;85.16
67005;HTU21D;53920;51.094;5.902;2023-12-20T01:14:37;7.24;85.35
67005;HTU21D;53920;51.094;5.902;2023-12-20T01:17:03;7.32;85.14
67005;HTU21D;53920;51.094;5.902;2023-12-20T01:19:28;7.38;84.94
67005;HTU21D;53920;51.094;5.902;2023-12-20T01:21:55;7.41;84.68
67005;HTU21D;53920;51.094;5.902;2023-12-20T01:24:21;7.32;84.83
67005;HTU21D;53920;51.094;5.902;2023-12-20T01:26:47;7.27;84.77
67005;HTU21D;53920;51.094;5.902;2023-12-20T01:29:13;7.18;84.93
67005;HTU21D;53920;51.094;5.902;2023-12-20T01:31:40;7.14;85.06
67005;HTU21D;53920;51.094;5.902;2023-12-20T01:34:06;7.09;85.29
67005;HTU21D;53920;51.094;5.902;2023-12-20T01:36:32;7.12;85.27
67005;HTU21D;53920;51.094;5.902;2023-12-20T01:38:58;7.15;85.34
67005;HTU21D;53920;51.094;5.902;2023-12-20T01:41:23;7.22;85.19
67005;HTU21D;53920;51.094;5.902;2023-12-20T01:43:49;7.27;85.06
67005;HTU21D;53920;51.094;5.902;2023-12-20T01:46:16;7.29;84.91
67005;HTU21D;53920;51.094;5.902;2023-12-20T01:48:42;7.26;84.71
67005;HTU21D;53920;51.094;5.902;2023-12-20T01:51:09;7.12;84.83
67005;HTU21D;53920;51.094;5.902;2023-12-20T01:53:38;7.07;84.93
67005;HTU21D;53920;51.094;5.902;2023-12-20T01:56:05;7.00;85.03
67005;HTU21D;53920;51.094;5.902;2023-12-20T01:58:31;6.93;85.18
67005;HTU21D;53920;51.094;5.902;2023-12-20T02:00:57;6.91;85.13
67005;HTU21D;53920;51.094;5.902;2023-12-20T02:03:24;6.85;85.16
67005;HTU21D;53920;51.094;5.902;2023-12-20T02:05:50;6.80;85.22
67005;HTU21D;53920;51.094;5.902;2023-12-20T02:08:16;6.75;85.32
67005;HTU21D;53920;51.094;5.902;2023-12-20T02:10:42;6.72;85.30
67005;HTU21D;53920;51.094;5.902;2023-12-20T02:13:08;6.69;85.50
67005;HTU21D;53920;51.094;5.902;2023-12-20T02:15:34;6.73;85.61
67005;HTU21D;53920;51.094;5.902;2023-12-20T02:18:02;6.79;85.57
67005;HTU21D;53920;51.094;5.902;2023-12-20T02:20:28;6.83;85.29
67005;HTU21D;53920;51.094;5.902;2023-12-20T02:22:54;6.78;85.29
67005;HTU21D;53920;51.094;5.902;2023-12-20T02:25:20;6.75;85.39
67005;HTU21D;53920;51.094;5.902;2023-12-20T02:27:46;6.75;85.49
67005;HTU21D;53920;51.094;5.902;2023-12-20T02:30:12;6.73;85.44
67005;HTU21D;53920;51.094;5.902;2023-12-20T02:32:38;6.78;85.30
67005;HTU21D;53920;51.094;5.902;2023-12-20T02:35:04;6.76;85.22
67005;HTU21D;53920;51.094;5.902;2023-12-20T02:37:30;6.71;85.32
67005;HTU21D;53920;51.094;5.902;2023-12-20T02:39:56;6.63;85.63
67005;HTU21D;53920;51.094;5.902;2023-12-20T02:42:23;6.73;85.47
67005;HTU21D;53920;51.094;5.902;2023-12-20T02:44:49;6.78;85.30
67005;HTU21D;53920;51.094;5.902;2023-12-20T02:47:15;6.83;85.28
67005;HTU21D;53920;51.094;5.902;2023-12-20T02:49:41;6.86;85.27
67005;HTU21D;53920;51.094;5.902;2023-12-20T02:52:07;6.93;85.23
67005;HTU21D;53920;51.094;5.902;2023-12-20T02:54:32;6.94;85.22
67005;HTU21D;53920;51.094;5.902;2023-12-20T02:56:58;6.99;84.96
67005;HTU21D;53920;51.094;5.902;2023-12-20T02:59:24;6.89;85.39
67005;HTU21D;53920;51.094;5.902;2023-12-20T03:01:50;7.01;84.99
67005;HTU21D;53920;51.094;5.902;2023-12-20T03:04:16;7.09;84.79
67005;HTU21D;53920;51.094;5.902;2023-12-20T03:06:42;7.14;84.62
67005;HTU21D;53920;51.094;5.902;2023-12-20T03:09:07;7.07;84.58
67005;HTU21D;53920;51.094;5.902;2023-12-20T03:11:33;6.99;84.75
67005;HTU21D;53920;51.094;5.902;2023-12-20T03:13:59;6.96;84.49
67005;HTU21D;53920;51.094;5.902;2023-12-20T03:16:25;6.84;84.56
67005;HTU21D;53920;51.094;5.902;2023-12-20T03:18:51;6.79;84.69
67005;HTU21D;53920;51.094;5.902;2023-12-20T03:21:17;6.78;84.99
67005;HTU21D;53920;51.094;5.902;2023-12-20T03:23:43;6.87;84.77
67005;HTU21D;53920;51.094;5.902;2023-12-20T03:26:10;6.85;84.74
67005;HTU21D;53920;51.094;5.902;2023-12-20T03:28:36;6.86;84.76
67005;HTU21D;53920;51.094;5.902;2023-12-20T03:31:02;6.87;84.80
67005;HTU21D;53920;51.094;5.902;2023-12-20T03:33:28;6.82;84.65
67005;HTU21D;53920;51.094;5.902;2023-12-20T03:35:54;6.81;84.86
67005;HTU21D;53920;51.094;5.902;2023-12-20T03:38:21;6.85;84.68
67005;HTU21D;53920;51.094;5.902;2023-12-20T03:40:47;6.84;84.90
67005;HTU21D;53920;51.094;5.902;2023-12-20T03:43:12;6.90;84.74
67005;HTU21D;53920;51.094;5.902;2023-12-20T03:45:38;6.98;84.64
67005;HTU21D;53920;51.094;5.902;2023-12-20T03:48:05;7.07;84.30
67005;HTU21D;53920;51.094;5.902;2023-12-20T03:50:32;7.13;83.87
67005;HTU21D;53920;51.094;5.902;2023-12-20T03:52:58;7.08;83.94
67005;HTU21D;53920;51.094;5.902;2023-12-20T03:55:24;7.00;83.98
67005;HTU21D;53920;51.094;5.902;2023-12-20T03:57:49;6.96;83.98
67005;HTU21D;53920;51.094;5.902;2023-12-20T04:00:15;6.83;84.24
67005;HTU21D;53920;51.094;5.902;2023-12-20T04:02:45;6.84;84.01
67005;HTU21D;53920;51.094;5.902;2023-12-20T04:05:11;6.78;84.11
67005;HTU21D;53920;51.094;5.902;2023-12-20T04:07:37;6.74;84.12
67005;HTU21D;53920;51.094;5.902;2023-12-20T04:10:03;6.72;84.26
67005;HTU21D;53920;51.094;5.902;2023-12-20T04:12:32;6.72;84.31
67005;HTU21D;53920;51.094;5.902;2023-12-20T04:14:59;6.75;84.28
67005;HTU21D;53920;51.094;5.902;2023-12-20T04:17:24;6.76;84.28
67005;HTU21D;53920;51.094;5.902;2023-12-20T04:19:51;6.82;84.16
67005;HTU21D;53920;51.094;5.902;2023-12-20T04:22:18;6.81;84.03
67005;HTU21D;53920;51.094;5.902;2023-12-20T04:24:44;6.83;84.27
67005;HTU21D;53920;51.094;5.902;2023-12-20T04:27:10;6.87;84.28
67005;HTU21D;53920;51.094;5.902;2023-12-20T04:29:36;6.89;84.39
67005;HTU21D;53920;51.094;5.902;2023-12-20T04:32:02;6.94;84.23
67005;HTU21D;53920;51.094;5.902;2023-12-20T04:34:28;6.93;84.40
67005;HTU21D;53920;51.094;5.902;2023-12-20T04:36:54;7.00;84.18
67005;HTU21D;53920;51.094;5.902;2023-12-20T04:39:19;7.00;84.15
67005;HTU21D;53920;51.094;5.902;2023-12-20T04:41:45;6.99;84.17
67005;HTU21D;53920;51.094;5.902;2023-12-20T04:44:13;6.96;84.25
67005;HTU21D;53920;51.094;5.902;2023-12-20T04:46:39;6.97;84.41
67005;HTU21D;53920;51.094;5.902;2023-12-20T04:49:05;7.03;84.24
67005;HTU21D;53920;51.094;5.902;2023-12-20T04:51:35;7.03;84.23
67005;HTU21D;53920;51.094;5.902;2023-12-20T04:54:01;7.03;84.23
67005;HTU21D;53920;51.094;5.902;2023-12-20T04:56:28;6.98;84.55
67005;HTU21D;53920;51.094;5.902;2023-12-20T04:58:54;6.99;84.41
67005;HTU21D;53920;51.094;5.902;2023-12-20T05:01:20;6.99;84.58
67005;HTU21D;53920;51.094;5.902;2023-12-20T05:03:47;6.96;84.50
67005;HTU21D;53920;51.094;5.902;2023-12-20T05:06:13;7.07;84.21
67005;HTU21D;53920;51.094;5.902;2023-12-20T05:08:39;7.12;84.08
67005;HTU21D;53920;51.094;5.902;2023-12-20T05:11:05;7.12;84.07
67005;HTU21D;53920;51.094;5.902;2023-12-20T05:13:30;7.13;83.98
67005;HTU21D;53920;51.094;5.902;2023-12-20T05:15:56;7.12;84.18
67005;HTU21D;53920;51.094;5.902;2023-12-20T05:18:22;7.15;84.15
67005;HTU21D;53920;51.094;5.902;2023-12-20T05:20:50;7.16;84.10
67005;HTU21D;53920;51.094;5.902;2023-12-20T05:23:16;7.17;84.01
67005;HTU21D;53920;51.094;5.902;2023-12-20T05:25:43;7.23;83.91
67005;HTU21D;53920;51.094;5.902;2023-12-20T05:28:08;7.20;83.94
67005;HTU21D;53920;51.094;5.902;2023-12-20T05:30:34;7.26;83.65
67005;HTU21D;53920;51.094;5.902;2023-12-20T05:33:00;7.27;83.60
67005;HTU21D;53920;51.094;5.902;2023-12-20T05:35:26;7.28;83.47
67005;HTU21D;53920;51.094;5.902;2023-12-20T05:37:52;7.30;83.43
67005;HTU21D;53920;51.094;5.902;2023-12-20T05:40:18;7.29;83.47
67005;HTU21D;53920;51.094;5.902;2023-12-20T05:42:44;7.26;83.54
67005;HTU21D;53920;51.094;5.902;2023-12-20T05:45:09;7.22;83.75
67005;HTU21D;53920;51.094;5.902;2023-12-20T05:47:36;7.12;84.11
67005;HTU21D;53920;51.094;5.902;2023-12-20T05:50:02;7.23;83.62
67005;HTU21D;53920;51.094;5.902;2023-12-20T05:52:29;7.18;83.75
67005;HTU21D;53920;51.094;5.902;2023-12-20T05:54:55;7.25;83.63
67005;HTU21D;53920;51.094;5.902;2023-12-20T05:57:23;7.34;83.29
67005;HTU21D;53920;51.094;5.902;2023-12-20T05:59:49;7.37;83.37
67005;HTU21D;53920;51.094;5.902;2023-12-20T06:02:15;7.37;83.32
67005;HTU21D;53920;51.094;5.902;2023-12-20T06:04:45;7.40;83.27
67005;HTU21D;53920;51.094;5.902;2023-12-20T06:07:12;7.40;83.15
67005;HTU21D;53920;51.094;5.902;2023-12-20T06:09:38;7.38;83.31
67005;HTU21D;53920;51.094;5.902;2023-12-20T06:12:04;7.41;83.05
67005;HTU21D;53920;51.094;5.902;2023-12-20T06:14:30;7.39;83.09
67005;HTU21D;53920;51.094;5.902;2023-12-20T06:16:57;7.33;83.11
67005;HTU21D;53920;51.094;5.902;2023-12-20T06:19:23;7.29;83.17
67005;HTU21D;53920;51.094;5.902;2023-12-20T06:21:49;7.24;83.34
67005;HTU21D;53920;51.094;5.902;2023-12-20T06:24:14;7.16;83.37
67005;HTU21D;53920;51.094;5.902;2023-12-20T06:26:41;7.15;83.23
67005;HTU21D;53920;51.094;5.902;2023-12-20T06:29:06;7.07;83.27
67005;HTU21D;53920;51.094;5.902;2023-12-20T06:31:32;6.95;83.58
67005;HTU21D;53920;51.094;5.902;2023-12-20T06:33:58;6.89;83.60
67005;HTU21D;53920;51.094;5.902;2023-12-20T06:36:26;6.83;83.63
67005;HTU21D;53920;51.094;5.902;2023-12-20T06:38:52;6.72;84.06
67005;HTU21D;53920;51.094;5.902;2023-12-20T06:41:18;6.70;83.81
67005;HTU21D;53920;51.094;5.902;2023-12-20T06:43:44;6.66;83.84
67005;HTU21D;53920;51.094;5.902;2023-12-20T06:46:10;6.61;83.97
67005;HTU21D;53920;51.094;5.902;2023-12-20T06:48:36;6.63;83.95
67005;HTU21D;53920;51.094;5.902;2023-12-20T06:51:02;6.55;84.23
67005;HTU21D;53920;51.094;5.902;2023-12-20T06:53:28;6.56;84.09
67005;HTU21D;53920;51.094;5.902;2023-12-20T06:55:54;6.53;84.32
67005;HTU21D;53920;51.094;5.902;2023-12-20T06:58:22;6.48;84.30
67005;HTU21D;53920;51.094;5.902;2023-12-20T07:00:48;6.43;84.42
67005;HTU21D;53920;51.094;5.902;2023-12-20T07:03:13;6.48;84.23
67005;HTU21D;53920;51.094;5.902;2023-12-20T07:05:40;6.50;84.06
67005;HTU21D;53920;51.094;5.902;2023-12-20T07:08:06;6.43;84.27
67005;HTU21D;53920;51.094;5.902;2023-12-20T07:10:32;6.45;84.16
67005;HTU21D;53920;51.094;5.902;2023-12-20T07:12:58;6.42;84.29
67005;HTU21D;53920;51.094;5.902;2023-12-20T07:15:24;6.39;84.26
67005;HTU21D;53920;51.094;5.902;2023-12-20T07:17:50;6.33;84.59
67005;HTU21D;53920;51.094;5.902;2023-12-20T07:20:16;6.39;84.27
67005;HTU21D;53920;51.094;5.902;2023-12-20T07:22:43;6.37;84.31
67005;HTU21D;53920;51.094;5.902;2023-12-20T07:25:08;6.44;84.22
67005;HTU21D;53920;51.094;5.902;2023-12-20T07:27:34;6.49;84.00
67005;HTU21D;53920;51.094;5.902;2023-12-20T07:30:00;6.45;84.14
67005;HTU21D;53920;51.094;5.902;2023-12-20T07:32:26;6.39;84.26
67005;HTU21D;53920;51.094;5.902;2023-12-20T07:34:52;6.40;84.16
67005;HTU21D;53920;51.094;5.902;2023-12-20T07:37:19;6.31;84.29
67005;HTU21D;53920;51.094;5.902;2023-12-20T07:39:45;6.35;84.10
67005;HTU21D;53920;51.094;5.902;2023-12-20T07:42:10;6.34;84.18
67005;HTU21D;53920;51.094;5.902;2023-12-20T07:44:36;6.36;84.06
67005;HTU21D;53920;51.094;5.902;2023-12-20T07:47:02;6.31;84.05
67005;HTU21D;53920;51.094;5.902;2023-12-20T07:49:28;6.35;83.97
67005;HTU21D;53920;51.094;5.902;2023-12-20T07:51:54;6.27;84.12
67005;HTU21D;53920;51.094;5.902;2023-12-20T07:54:19;6.31;84.19
67005;HTU21D;53920;51.094;5.902;2023-12-20T07:56:46;6.31;84.15
67005;HTU21D;53920;51.094;5.902;2023-12-20T07:59:12;6.34;84.25
67005;HTU21D;53920;51.094;5.902;2023-12-20T08:01:38;6.38;84.14
67005;HTU21D;53920;51.094;5.902;2023-12-20T08:04:04;6.42;84.01
67005;HTU21D;53920;51.094;5.902;2023-12-20T08:06:30;6.40;84.16
67005;HTU21D;53920;51.094;5.902;2023-12-20T08:08:56;6.45;84.07
67005;HTU21D;53920;51.094;5.902;2023-12-20T08:11:21;6.45;84.20
67005;HTU21D;53920;51.094;5.902;2023-12-20T08:13:47;6.52;84.14
67005;HTU21D;53920;51.094;5.902;2023-12-20T08:16:13;6.56;83.87
67005;HTU21D;53920;51.094;5.902;2023-12-20T08:18:41;6.56;83.84
67005;HTU21D;53920;51.094;5.902;2023-12-20T08:21:07;6.59;83.65
67005;HTU21D;53920;51.094;5.902;2023-12-20T08:23:34;6.55;83.89
67005;HTU21D;53920;51.094;5.902;2023-12-20T08:26:05;6.61;83.63
67005;HTU21D;53920;51.094;5.902;2023-12-20T08:28:31;6.65;83.84
67005;HTU21D;53920;51.094;5.902;2023-12-20T08:30:57;6.84;83.70
67005;HTU21D;53920;51.094;5.902;2023-12-20T08:33:22;7.05;83.25
67005;HTU21D;53920;51.094;5.902;2023-12-20T08:35:48;7.17;82.97
67005;HTU21D;53920;51.094;5.902;2023-12-20T08:38:14;7.27;82.87
67005;HTU21D;53920;51.094;5.902;2023-12-20T08:40:40;7.39;82.52
67005;HTU21D;53920;51.094;5.902;2023-12-20T08:43:06;7.43;82.26
67005;HTU21D;53920;51.094;5.902;2023-12-20T08:45:31;7.38;82.86
67005;HTU21D;53920;51.094;5.902;2023-12-20T08:47:57;7.44;82.37
67005;HTU21D;53920;51.094;5.902;2023-12-20T08:50:23;7.49;82.07
67005;HTU21D;53920;51.094;5.902;2023-12-20T08:52:50;7.46;82.16
67005;HTU21D;53920;51.094;5.902;2023-12-20T08:55:16;7.46;81.92
67005;HTU21D;53920;51.094;5.902;2023-12-20T08:57:43;7.50;81.98
67005;HTU21D;53920;51.094;5.902;2023-12-20T09:00:10;7.55;81.93
67005;HTU21D;53920;51.094;5.902;2023-12-20T09:02:36;7.69;81.69
67005;HTU21D;53920;51.094;5.902;2023-12-20T09:05:03;7.70;81.64
67005;HTU21D;53920;51.094;5.902;2023-12-20T09:07:29;7.67;81.41
67005;HTU21D;53920;51.094;5.902;2023-12-20T09:09:58;7.60;81.52
67005;HTU21D;53920;51.094;5.902;2023-12-20T09:12:25;7.64;81.42
67005;HTU21D;53920;51.094;5.902;2023-12-20T09:14:51;7.65;81.64
67005;HTU21D;53920;51.094;5.902;2023-12-20T09:17:18;7.58;81.74
67005;HTU21D;53920;51.094;5.902;2023-12-20T09:19:44;7.61;81.39
67005;HTU21D;53920;51.094;5.902;2023-12-20T09:22:12;7.60;81.65
67005;HTU21D;53920;51.094;5.902;2023-12-20T09:24:38;7.74;81.60
67005;HTU21D;53920;51.094;5.902;2023-12-20T09:27:07;7.90;81.20
67005;HTU21D;53920;51.094;5.902;2023-12-20T09:29:33;7.88;81.43
67005;HTU21D;53920;51.094;5.902;2023-12-20T09:31:59;7.86;81.39
67005;HTU21D;53920;51.094;5.902;2023-12-20T09:34:25;7.91;81.35
67005;HTU21D;53920;51.094;5.902;2023-12-20T09:36:51;7.91;81.09
67005;HTU21D;53920;51.094;5.902;2023-12-20T09:39:19;7.89;81.35
67005;HTU21D;53920;51.094;5.902;2023-12-20T09:44:22;8.57;80.39
67005;HTU21D;53920;51.094;5.902;2023-12-20T09:46:50;8.75;79.93
67005;HTU21D;53920;51.094;5.902;2023-12-20T09:49:18;8.79;79.75
67005;HTU21D;53920;51.094;5.902;2023-12-20T09:51:46;8.76;79.09
67005;HTU21D;53920;51.094;5.902;2023-12-20T09:54:17;8.71;79.14
67005;HTU21D;53920;51.094;5.902;2023-12-20T09:56:44;8.64;79.24
67005;HTU21D;53920;51.094;5.902;2023-12-20T09:59:10;8.55;79.26
67005;HTU21D;53920;51.094;5.902;2023-12-20T10:01:38;8.48;79.49
67005;HTU21D;53920;51.094;5.902;2023-12-20T10:04:09;8.50;79.71
67005;HTU21D;53920;51.094;5.902;2023-12-20T10:06:39;8.50;79.53
67005;HTU21D;53920;51.094;5.902;2023-12-20T10:09:06;8.43;79.91
67005;HTU21D;53920;51.094;5.902;2023-12-20T10:11:32;8.57;79.59
67005;HTU21D;53920;51.094;5.902;2023-12-20T10:14:01;8.65;79.02
67005;HTU21D;53920;51.094;5.902;2023-12-20T10:16:28;8.57;79.02
67005;HTU21D;53920;51.094;5.902;2023-12-20T10:18:55;8.46;79.42
67005;HTU21D;53920;51.094;5.902;2023-12-20T10:21:22;8.65;79.81
67005;HTU21D;53920;51.094;5.902;2023-12-20T10:23:49;8.90;78.97
67005;HTU21D;53920;51.094;5.902;2023-12-20T10:26:23;9.07;78.29
67005;HTU21D;53920;51.094;5.902;2023-12-20T10:28:54;8.96;78.54
67005;HTU21D;53920;51.094;5.902;2023-12-20T10:31:31;9.01;78.15
67005;HTU21D;53920;51.094;5.902;2023-12-20T10:33:58;8.88;78.70
67005;HTU21D;53920;51.094;5.902;2023-12-20T10:36:32;8.82;78.62
67005;HTU21D;53920;51.094;5.902;2023-12-20T10:38:59;8.79;78.39
67005;HTU21D;53920;51.094;5.902;2023-12-20T10:41:29;8.76;78.39
67005;HTU21D;53920;51.094;5.902;2023-12-20T10:44:04;8.71;78.88
67005;HTU21D;53920;51.094;5.902;2023-12-20T10:46:34;8.88;78.68
67005;HTU21D;53920;51.094;5.902;2023-12-20T10:49:02;9.14;78.06
67005;HTU21D;53920;51.094;5.902;2023-12-20T10:51:31;9.49;78.13
67005;HTU21D;53920;51.094;5.902;2023-12-20T10:53:57;9.74;77.69
67005;HTU21D;53920;51.094;5.902;2023-12-20T10:56:23;9.88;76.53
67005;HTU21D;53920;51.094;5.902;2023-12-20T10:58:49;9.86;76.21
67005;HTU21D;53920;51.094;5.902;2023-12-20T11:01:17;9.85;75.76
67005;HTU21D;53920;51.094;5.902;2023-12-20T11:03:53;9.78;76.06
67005;HTU21D;53920;51.094;5.902;2023-12-20T11:09:03;9.61;75.86
67005;HTU21D;53920;51.094;5.902;2023-12-20T11:14:32;9.65;75.64
67005;HTU21D;53920;51.094;5.902;2023-12-20T11:17:11;9.67;75.42
67005;HTU21D;53920;51.094;5.902;2023-12-20T11:22:30;9.45;75.65
67005;HTU21D;53920;51.094;5.902;2023-12-20T11:25:08;9.34;75.96
67005;HTU21D;53920;51.094;5.902;2023-12-20T11:27:35;9.14;76.24
67005;HTU21D;53920;51.094;5.902;2023-12-20T11:30:04;9.07;76.37
67005;HTU21D;53920;51.094;5.902;2023-12-20T11:32:36;8.96;76.57
67005;HTU21D;53920;51.094;5.902;2023-12-20T11:37:38;8.95;76.74
67005;HTU21D;53920;51.094;5.902;2023-12-20T11:40:07;8.94;76.66
67005;HTU21D;53920;51.094;5.902;2023-12-20T11:42:41;8.97;76.54
67005;HTU21D;53920;51.094;5.902;2023-12-20T11:45:11;8.90;76.88
67005;HTU21D;53920;51.094;5.902;2023-12-20T11:47:43;8.96;76.67
67005;HTU21D;53920;51.094;5.902;2023-12-20T11:50:10;9.02;76.56
67005;HTU21D;53920;51.094;5.902;2023-12-20T11:52:36;9.06;76.57
67005;HTU21D;53920;51.094;5.902;2023-12-20T11:55:03;9.04;76.66
67005;HTU21D;53920;51.094;5.902;2023-12-20T11:57:33;9.03;76.84
67005;HTU21D;53920;51.094;5.902;2023-12-20T12:00:00;8.97;76.90
67005;HTU21D;53920;51.094;5.902;2023-12-20T12:02:25;8.86;77.02
67005;HTU21D;53920;51.094;5.902;2023-12-20T12:04:51;8.85;77.34
67005;HTU21D;53920;51.094;5.902;2023-12-20T12:07:17;8.83;77.59
67005;HTU21D;53920;51.094;5.902;2023-12-20T12:09:43;8.90;77.54
67005;HTU21D;53920;51.094;5.902;2023-12-20T12:12:12;8.93;77.53
67005;HTU21D;53920;51.094;5.902;2023-12-20T12:14:38;8.89;77.76
67005;HTU21D;53920;51.094;5.902;2023-12-20T12:17:14;8.94;77.56
67005;HTU21D;53920;51.094;5.902;2023-12-20T12:19:40;8.87;77.85
67005;HTU21D;53920;51.094;5.902;2023-12-20T12:22:14;8.82;78.10
67005;HTU21D;53920;51.094;5.902;2023-12-20T12:27:08;8.76;78.57
67005;HTU21D;53920;51.094;5.902;2023-12-20T12:29:36;8.77;78.67
67005;HTU21D;53920;51.094;5.902;2023-12-20T12:32:06;8.74;78.98
67005;HTU21D;53920;51.094;5.902;2023-12-20T12:34:33;8.72;79.33
67005;HTU21D;53920;51.094;5.902;2023-12-20T12:37:00;8.72;79.59
67005;HTU21D;53920;51.094;5.902;2023-12-20T12:39:27;8.71;79.73
67005;HTU21D;53920;51.094;5.902;2023-12-20T12:41:53;8.63;79.91
67005;HTU21D;53920;51.094;5.902;2023-12-20T12:44:19;8.61;80.10
67005;HTU21D;53920;51.094;5.902;2023-12-20T12:46:46;8.60;80.33
67005;HTU21D;53920;51.094;5.902;2023-12-20T12:49:12;8.60;80.40
67005;HTU21D;53920;51.094;5.902;2023-12-20T12:51:38;8.63;80.68
67005;HTU21D;53920;51.094;5.902;2023-12-20T12:54:04;8.73;80.72
67005;HTU21D;53920;51.094;5.902;2023-12-20T12:56:30;8.79;80.55
67005;HTU21D;53920;51.094;5.902;2023-12-20T12:58:56;8.87;80.24
67005;HTU21D;53920;51.094;5.902;2023-12-20T13:01:22;8.87;80.15
67005;HTU21D;53920;51.094;5.902;2023-12-20T13:03:48;8.93;79.97
67005;HTU21D;53920;51.094;5.902;2023-12-20T13:06:14;8.95;80.07
67005;HTU21D;53920;51.094;5.902;2023-12-20T13:08:40;9.00;79.95
67005;HTU21D;53920;51.094;5.902;2023-12-20T13:11:05;9.06;79.79
67005;HTU21D;53920;51.094;5.902;2023-12-20T13:13:32;8.96;79.92
67005;HTU21D;53920;51.094;5.902;2023-12-20T13:15:57;8.92;80.20
67005;HTU21D;53920;51.094;5.902;2023-12-20T13:18:24;8.74;80.64
67005;HTU21D;53920;51.094;5.902;2023-12-20T13:20:49;8.63;81.17
67005;HTU21D;53920;51.094;5.902;2023-12-20T13:23:15;8.57;81.75
67005;HTU21D;53920;51.094;5.902;2023-12-20T13:25:44;8.57;81.77
67005;HTU21D;53920;51.094;5.902;2023-12-20T13:28:13;8.64;81.83
67005;HTU21D;53920;51.094;5.902;2023-12-20T13:30:39;8.60;82.09
67005;HTU21D;53920;51.094;5.902;2023-12-20T13:33:06;8.60;82.20
67005;HTU21D;53920;51.094;5.902;2023-12-20T13:35:33;8.58;82.36
67005;HTU21D;53920;51.094;5.902;2023-12-20T13:38:00;8.60;82.40
67005;HTU21D;53920;51.094;5.902;2023-12-20T13:40:26;8.68;82.30
67005;HTU21D;53920;51.094;5.902;2023-12-20T13:42:52;8.79;82.24
67005;HTU21D;53920;51.094;5.902;2023-12-20T13:45:18;8.82;82.14
67005;HTU21D;53920;51.094;5.902;2023-12-20T13:47:44;8.85;81.88
67005;HTU21D;53920;51.094;5.902;2023-12-20T13:50:10;8.86;81.63
67005;HTU21D;53920;51.094;5.902;2023-12-20T13:52:36;8.89;81.66
67005;HTU21D;53920;51.094;5.902;2023-12-20T13:55:02;8.95;81.27
67005;HTU21D;53920;51.094;5.902;2023-12-20T13:57:28;9.00;81.16
67005;HTU21D;53920;51.094;5.902;2023-12-20T13:59:55;9.02;81.12
67005;HTU21D;53920;51.094;5.902;2023-12-20T14:02:23;9.03;80.97
67005;HTU21D;53920;51.094;5.902;2023-12-20T14:04:49;9.09;80.92
67005;HTU21D;53920;51.094;5.902;2023-12-20T14:07:15;9.15;80.53
67005;HTU21D;53920;51.094;5.902;2023-12-20T14:09:41;9.12;80.46
67005;HTU21D;53920;51.094;5.902;2023-12-20T14:12:11;9.24;80.61
67005;HTU21D;53920;51.094;5.902;2023-12-20T14:14:38;9.29;80.45
67005;HTU21D;53920;51.094;5.902;2023-12-20T14:17:04;9.18;80.65
67005;HTU21D;53920;51.094;5.902;2023-12-20T14:19:32;9.07;81.07
67005;HTU21D;53920;51.094;5.902;2023-12-20T14:21:58;9.01;81.20
67005;HTU21D;53920;51.094;5.902;2023-12-20T14:24:27;8.96;81.43
67005;HTU21D;53920;51.094;5.902;2023-12-20T14:26:53;9.00;81.43
67005;HTU21D;53920;51.094;5.902;2023-12-20T14:29:19;9.02;81.39
67005;HTU21D;53920;51.094;5.902;2023-12-20T14:31:45;8.95;81.44
67005;HTU21D;53920;51.094;5.902;2023-12-20T14:34:11;8.88;81.63
67005;HTU21D;53920;51.094;5.902;2023-12-20T14:36:37;8.98;81.22
67005;HTU21D;53920;51.094;5.902;2023-12-20T14:39:03;9.01;81.16
67005;HTU21D;53920;51.094;5.902;2023-12-20T14:41:30;9.05;80.89
67005;HTU21D;53920;51.094;5.902;2023-12-20T14:43:56;9.10;80.57
67005;HTU21D;53920;51.094;5.902;2023-12-20T14:46:22;9.19;80.25
67005;HTU21D;53920;51.094;5.902;2023-12-20T14:48:48;9.24;80.08
67005;HTU21D;53920;51.094;5.902;2023-12-20T14:51:15;9.19;80.06
67005;HTU21D;53920;51.094;5.902;2023-12-20T14:53:41;9.24;79.95
67005;HTU21D;53920;51.094;5.902;2023-12-20T14:56:08;9.21;79.96
67005;HTU21D;53920;51.094;5.902;2023-12-20T14:58:34;9.19;80.09
67005;HTU21D;53920;51.094;5.902;2023-12-20T15:01:00;9.17;79.97
67005;HTU21D;53920;51.094;5.902;2023-12-20T15:03:26;9.21;79.83
67005;HTU21D;53920;51.094;5.902;2023-12-20T15:05:52;9.19;79.80
67005;HTU21D;53920;51.094;5.902;2023-12-20T15:08:18;9.18;79.77
67005;HTU21D;53920;51.094;5.902;2023-12-20T15:10:44;9.16;79.82
67005;HTU21D;53920;51.094;5.902;2023-12-20T15:13:09;9.12;79.95
67005;HTU21D;53920;51.094;5.902;2023-12-20T15:15:36;9.18;79.74
67005;HTU21D;53920;51.094;5.902;2023-12-20T15:18:03;9.19;79.74
67005;HTU21D;53920;51.094;5.902;2023-12-20T15:20:29;9.12;80.11
67005;HTU21D;53920;51.094;5.902;2023-12-20T15:22:55;9.15;79.88
67005;HTU21D;53920;51.094;5.902;2023-12-20T15:25:24;9.17;79.88
67005;HTU21D;53920;51.094;5.902;2023-12-20T15:27:50;9.07;80.04
67005;HTU21D;53920;51.094;5.902;2023-12-20T15:30:19;9.16;79.90
67005;HTU21D;53920;51.094;5.902;2023-12-20T15:32:45;9.14;79.85
67005;HTU21D;53920;51.094;5.902;2023-12-20T15:35:11;9.04;79.96
67005;HTU21D;53920;51.094;5.902;2023-12-20T15:37:40;9.01;80.11
67005;HTU21D;53920;51.094;5.902;2023-12-20T15:40:10;9.02;80.20
67005;HTU21D;53920;51.094;5.902;2023-12-20T15:42:37;9.03;80.01